createdAt,value
2023-03-05T00:01:40.529Z,0.80
2023-03-05T00:04:15.073Z,0.70
2023-03-05T00:06:43.424Z,0.70
2023-03-05T00:09:11.324Z,0.70
2023-03-05T00:11:39.750Z,0.70
2023-03-05T00:14:07.742Z,0.70
2023-03-05T00:16:35.542Z,0.70
2023-03-05T00:19:03.970Z,0.70
2023-03-05T00:21:42.660Z,0.70
2023-03-05T00:24:18.134Z,0.66
2023-03-05T00:26:46.733Z,0.60
2023-03-05T00:29:18.420Z,0.54
2023-03-05T00:31:47.145Z,0.52
2023-03-05T00:34:17.944Z,0.50
2023-03-05T00:36:49.564Z,0.50
2023-03-05T00:39:19.949Z,0.40
2023-03-05T00:41:48.198Z,0.40
2023-03-05T00:44:15.988Z,0.40
2023-03-05T00:46:43.820Z,0.44
2023-03-05T00:49:12.024Z,0.40
2023-03-05T00:51:39.797Z,0.40
2023-03-05T00:54:07.686Z,0.40
2023-03-05T00:56:35.537Z,0.40
2023-03-05T00:59:03.707Z,0.44
2023-03-05T01:01:33.037Z,0.50
2023-03-05T01:04:01.270Z,0.50
2023-03-05T01:06:29.616Z,0.40
2023-03-05T01:08:57.729Z,0.40
2023-03-05T01:11:28.206Z,0.40
2023-03-05T01:13:56.073Z,0.40
2023-03-05T01:16:26.253Z,0.40
2023-03-05T01:18:54.793Z,0.40
2023-03-05T01:21:22.690Z,0.40
2023-03-05T01:23:50.532Z,0.40
2023-03-05T01:26:20.359Z,0.40
2023-03-05T01:28:48.188Z,0.40
2023-03-05T01:31:16.183Z,0.40
2023-03-05T01:33:44.296Z,0.40
2023-03-05T01:36:16.838Z,0.40
2023-03-05T01:38:47.536Z,0.30
2023-03-05T01:41:17.442Z,0.30
2023-03-05T01:43:47.821Z,0.30
2023-03-05T01:46:38.272Z,0.30
2023-03-05T01:49:10.409Z,0.20
2023-03-05T01:52:06.777Z,0.20
2023-03-05T01:54:46.780Z,0.20
2023-03-05T01:57:19.943Z,0.20
2023-03-05T01:59:55.716Z,0.20
2023-03-05T02:02:24.178Z,0.12
2023-03-05T02:05:01.451Z,0.20
2023-03-05T02:07:31.492Z,0.14
2023-03-05T02:10:02.633Z,0.10
2023-03-05T02:12:30.772Z,0.06
2023-03-05T02:14:59.489Z,0.06
2023-03-05T02:17:28.206Z,0.10
2023-03-05T02:20:06.785Z,0.04
2023-03-05T02:22:34.524Z,0.02
2023-03-05T02:25:02.505Z,0.00
2023-03-05T02:27:35.664Z,0.00
2023-03-05T02:30:04.001Z,0.00
2023-03-05T02:32:31.867Z,-0.10
2023-03-05T02:34:59.666Z,-0.10
2023-03-05T02:37:28.593Z,-0.10
2023-03-05T02:39:56.366Z,-0.10
2023-03-05T02:42:24.294Z,-0.10
2023-03-05T02:44:52.134Z,-0.10
2023-03-05T02:47:19.906Z,-0.10
2023-03-05T02:49:47.879Z,-0.10
2023-03-05T02:52:15.672Z,-0.20
2023-03-05T02:54:43.493Z,-0.20
2023-03-05T02:57:11.353Z,-0.20
2023-03-05T02:59:39.151Z,-0.20
2023-03-05T03:02:06.974Z,-0.24
2023-03-05T03:04:34.856Z,-0.22
2023-03-05T03:07:02.669Z,-0.26
2023-03-05T03:09:30.467Z,-0.26
2023-03-05T03:11:58.337Z,-0.30
2023-03-05T03:14:26.355Z,-0.32
2023-03-05T03:16:54.163Z,-0.30
2023-03-05T03:19:21.967Z,-0.30
2023-03-05T03:21:50.327Z,-0.36
2023-03-05T03:24:18.135Z,-0.40
2023-03-05T03:26:46.529Z,-0.40
2023-03-05T03:29:14.321Z,-0.40
2023-03-05T03:31:42.291Z,-0.40
2023-03-05T03:34:10.111Z,-0.40
2023-03-05T03:36:39.343Z,-0.40
2023-03-05T03:39:09.901Z,-0.40
2023-03-05T03:41:46.337Z,-0.40
2023-03-05T03:44:14.843Z,-0.40
2023-03-05T03:46:44.391Z,-0.40
2023-03-05T03:49:24.697Z,-0.40
2023-03-05T03:51:54.728Z,-0.50
2023-03-05T03:54:23.044Z,-0.50
2023-03-05T03:56:51.127Z,-0.56
2023-03-05T03:59:20.292Z,-0.50
2023-03-05T04:01:48.088Z,-0.50
2023-03-05T04:04:16.058Z,-0.50
2023-03-05T04:06:44.043Z,-0.54
2023-03-05T04:09:11.833Z,-0.50
2023-03-05T04:11:39.611Z,-0.50
2023-03-05T04:14:07.422Z,-0.52
2023-03-05T04:16:35.248Z,-0.50
2023-03-05T04:19:03.063Z,-0.50
2023-03-05T04:21:30.925Z,-0.54
2023-03-05T04:23:58.724Z,-0.60
2023-03-05T04:26:26.608Z,-0.60
2023-03-05T04:28:54.329Z,-0.60
2023-03-05T04:31:22.192Z,-0.60
2023-03-05T04:33:49.997Z,-0.60
2023-03-05T04:36:17.807Z,-0.60
2023-03-05T04:38:45.628Z,-0.60
2023-03-05T04:41:13.419Z,-0.60
2023-03-05T04:43:41.244Z,-0.50
2023-03-05T04:46:09.085Z,-0.50
2023-03-05T04:48:36.818Z,-0.50
2023-03-05T04:51:05.070Z,-0.50
2023-03-05T04:53:32.939Z,-0.50
2023-03-05T04:56:01.655Z,-0.50
2023-03-05T04:58:29.578Z,-0.50
2023-03-05T05:01:05.818Z,-0.50
2023-03-05T05:03:34.602Z,-0.50
2023-03-05T05:06:02.629Z,-0.50
2023-03-05T05:08:31.045Z,-0.50
2023-03-05T05:11:01.869Z,-0.48
2023-03-05T05:13:30.990Z,-0.50
2023-03-05T05:15:59.036Z,-0.50
2023-03-05T05:18:27.149Z,-0.54
2023-03-05T05:20:54.961Z,-0.56
2023-03-05T05:23:22.787Z,-0.60
2023-03-05T05:26:02.029Z,-0.60
2023-03-05T05:28:30.071Z,-0.56
2023-03-05T05:30:57.979Z,-0.50
2023-03-05T05:33:27.046Z,-0.50
2023-03-05T05:35:54.877Z,-0.50
2023-03-05T05:38:22.712Z,-0.60
2023-03-05T05:40:50.496Z,-0.58
2023-03-05T05:43:18.231Z,-0.60
2023-03-05T05:45:46.153Z,-0.52
2023-03-05T05:48:16.249Z,-0.52
2023-03-05T05:50:43.957Z,-0.50
2023-03-05T05:53:11.733Z,-0.50
2023-03-05T05:55:42.268Z,-0.50
2023-03-05T05:58:10.008Z,-0.50
2023-03-05T06:00:38.494Z,-0.46
2023-03-05T06:03:06.355Z,-0.50
2023-03-05T06:05:34.943Z,-0.48
2023-03-05T06:08:02.706Z,-0.44
2023-03-05T06:10:30.520Z,-0.40
2023-03-05T06:12:58.438Z,-0.40
2023-03-05T06:15:26.261Z,-0.40
2023-03-05T06:17:54.638Z,-0.32
2023-03-05T06:20:23.219Z,-0.30
2023-03-05T06:22:51.985Z,-0.30
2023-03-05T06:25:19.937Z,-0.30
2023-03-05T06:27:47.698Z,-0.28
2023-03-05T06:30:15.706Z,-0.20
2023-03-05T06:32:43.449Z,-0.20
2023-03-05T06:35:11.950Z,-0.24
2023-03-05T06:37:39.759Z,-0.20
2023-03-05T06:40:08.769Z,-0.20
2023-03-05T06:42:36.558Z,-0.10
2023-03-05T06:45:05.109Z,-0.10
2023-03-05T06:47:33.339Z,-0.10
2023-03-05T06:50:01.103Z,0.00
2023-03-05T06:52:29.130Z,0.00
2023-03-05T06:54:56.930Z,0.08
2023-03-05T06:57:24.666Z,0.10
2023-03-05T06:59:52.460Z,0.14
2023-03-05T07:02:20.292Z,0.20
2023-03-05T07:04:48.154Z,0.30
2023-03-05T07:07:16.033Z,0.38
2023-03-05T07:09:45.906Z,0.40
2023-03-05T07:12:13.734Z,0.50
2023-03-05T07:14:41.519Z,0.54
2023-03-05T07:17:09.266Z,0.60
2023-03-05T07:19:38.138Z,0.70
2023-03-05T07:22:07.519Z,0.70
2023-03-05T07:24:35.629Z,0.80
2023-03-05T07:27:03.431Z,0.80
2023-03-05T07:29:31.230Z,0.90
2023-03-05T07:31:59.037Z,0.90
2023-03-05T07:34:27.525Z,1.00
2023-03-05T07:36:55.270Z,1.00
2023-03-05T07:39:23.938Z,1.10
2023-03-05T07:41:52.621Z,1.10
2023-03-05T07:44:27.145Z,1.20
2023-03-05T07:46:54.919Z,1.20
2023-03-05T07:49:23.800Z,1.30
2023-03-05T07:51:51.644Z,1.30
2023-03-05T07:54:19.441Z,1.38
2023-03-05T07:56:47.162Z,1.40
2023-03-05T07:59:14.965Z,1.40
2023-03-05T08:01:42.783Z,1.50
2023-03-05T08:04:10.997Z,1.50
2023-03-05T08:06:41.374Z,1.52
2023-03-05T08:09:09.340Z,1.60
2023-03-05T08:11:37.089Z,1.60
2023-03-05T08:14:04.939Z,1.60
2023-03-05T08:16:32.721Z,1.62
2023-03-05T08:19:00.469Z,1.68
2023-03-05T08:21:34.972Z,1.70
2023-03-05T08:24:06.147Z,1.70
2023-03-05T08:26:38.466Z,1.70
2023-03-05T08:29:08.650Z,1.70
2023-03-05T08:31:38.261Z,1.70
2023-03-05T08:34:06.864Z,1.80
2023-03-05T08:36:34.733Z,1.70
2023-03-05T08:39:03.455Z,1.70
2023-03-05T08:41:31.286Z,1.78
2023-03-05T08:43:59.149Z,1.76
2023-03-05T08:46:27.047Z,1.80
2023-03-05T08:48:54.881Z,1.74
2023-03-05T08:51:25.923Z,1.80
2023-03-05T08:53:56.061Z,1.80
2023-03-05T08:56:23.901Z,1.80
2023-03-05T08:58:53.029Z,1.80
2023-03-05T09:01:21.197Z,1.80
2023-03-05T09:03:49.020Z,1.80
2023-03-05T09:06:16.896Z,1.90
2023-03-05T09:08:44.684Z,1.90
2023-03-05T09:11:13.860Z,1.82
2023-03-05T09:13:41.649Z,1.84
2023-03-05T09:16:14.251Z,1.90
2023-03-05T09:18:42.793Z,1.90
2023-03-05T09:21:15.548Z,1.90
2023-03-05T09:23:44.649Z,1.90
2023-03-05T09:26:15.715Z,1.92
2023-03-05T09:28:43.527Z,1.90
2023-03-05T09:31:11.833Z,1.94
2023-03-05T09:33:40.431Z,2.00
2023-03-05T09:36:34.951Z,2.00
2023-03-05T09:39:04.179Z,2.00
2023-03-05T09:42:06.836Z,2.00
2023-03-05T09:44:50.969Z,2.00
2023-03-05T09:47:59.346Z,1.90
2023-03-05T09:50:48.308Z,2.00
2023-03-05T09:53:28.255Z,2.00
2023-03-05T09:56:00.328Z,2.00
2023-03-05T09:58:40.713Z,2.00
2023-03-05T10:01:33.434Z,2.00
2023-03-05T10:04:18.556Z,2.00
2023-03-05T10:07:15.522Z,2.00
2023-03-05T10:09:49.454Z,2.00
2023-03-05T10:12:44.273Z,2.06
2023-03-05T10:15:23.376Z,2.00
2023-03-05T10:18:17.751Z,2.02
2023-03-05T10:20:53.955Z,2.10
2023-03-05T10:23:29.687Z,2.10
2023-03-05T10:26:23.484Z,2.04
2023-03-05T10:29:37.816Z,2.00
2023-03-05T10:32:39.304Z,2.08
2023-03-05T10:35:55.546Z,2.10
2023-03-05T10:38:50.913Z,2.10
2023-03-05T10:41:44.218Z,2.00
2023-03-05T10:44:36.280Z,2.00
2023-03-05T10:47:16.513Z,2.06
2023-03-05T10:49:51.856Z,2.10
2023-03-05T10:52:29.274Z,2.10
2023-03-05T10:54:57.056Z,2.10
2023-03-05T10:57:28.177Z,2.10
2023-03-05T11:00:05.277Z,2.10
2023-03-05T11:02:34.244Z,2.12
2023-03-05T11:05:03.633Z,2.10
2023-03-05T11:07:36.629Z,2.10
2023-03-05T11:10:15.626Z,2.10
2023-03-05T11:12:44.356Z,2.10
2023-03-05T11:15:12.001Z,2.10
2023-03-05T11:18:02.973Z,2.10
2023-03-05T11:20:34.297Z,2.10
2023-03-05T11:23:03.872Z,2.10
2023-03-05T11:25:34.132Z,2.10
2023-03-05T11:28:03.547Z,2.10
2023-03-05T11:30:33.516Z,2.10
2023-03-05T11:33:20.904Z,2.10
2023-03-05T11:35:51.298Z,2.10
2023-03-05T11:38:28.051Z,2.00
2023-03-05T11:40:57.217Z,2.00
2023-03-05T11:43:26.185Z,1.92
2023-03-05T11:45:58.700Z,1.96
2023-03-05T11:48:37.787Z,1.90
2023-03-05T11:51:19.623Z,1.90
2023-03-05T11:53:52.303Z,1.96
2023-03-05T11:56:36.614Z,2.00
2023-03-05T11:59:19.661Z,2.00
2023-03-05T12:01:54.375Z,2.00
2023-03-05T12:04:23.150Z,1.90
2023-03-05T12:07:03.187Z,1.90
2023-03-05T12:09:47.871Z,1.80
2023-03-05T12:12:40.158Z,1.88
2023-03-05T12:15:38.833Z,1.90
2023-03-05T12:18:57.581Z,1.80
2023-03-05T12:21:43.572Z,1.80
2023-03-05T12:24:25.491Z,1.80
2023-03-05T12:27:03.914Z,1.80
2023-03-05T12:29:44.206Z,1.60
2023-03-05T12:32:33.304Z,1.70
2023-03-05T12:35:24.751Z,1.70
2023-03-05T12:37:52.467Z,1.80
2023-03-05T12:40:30.808Z,1.80
2023-03-05T12:43:00.167Z,1.70
2023-03-05T12:45:40.522Z,1.70
2023-03-05T12:48:12.623Z,1.70
2023-03-05T12:50:40.400Z,1.70
2023-03-05T12:53:15.922Z,1.80
2023-03-05T12:55:58.092Z,1.80
2023-03-05T12:58:45.457Z,1.70
2023-03-05T13:01:47.213Z,1.80
2023-03-05T13:04:21.745Z,1.80
2023-03-05T13:07:03.455Z,1.80
2023-03-05T13:09:36.548Z,1.80
2023-03-05T13:12:12.739Z,1.80
2023-03-05T13:14:46.024Z,1.80
2023-03-05T13:17:52.814Z,1.80
2023-03-05T13:20:27.655Z,1.80
2023-03-05T13:23:21.386Z,1.80
2023-03-05T13:26:08.995Z,1.80
2023-03-05T13:28:39.353Z,1.70
2023-03-05T13:31:19.409Z,1.70
2023-03-05T13:33:59.919Z,1.70
2023-03-05T13:36:27.939Z,1.70
2023-03-05T13:38:55.925Z,1.70
2023-03-05T13:41:28.268Z,1.70
2023-03-05T13:44:01.953Z,1.70
2023-03-05T13:46:39.161Z,1.70
2023-03-05T13:49:26.618Z,1.70
2023-03-05T13:51:57.232Z,1.70
2023-03-05T13:54:27.124Z,1.70
2023-03-05T13:57:05.806Z,1.70
2023-03-05T13:59:38.831Z,1.70
2023-03-05T14:02:21.117Z,1.70
2023-03-05T14:04:48.979Z,1.80
2023-03-05T14:07:40.869Z,1.80
2023-03-05T14:10:34.743Z,1.82
2023-03-05T14:13:11.669Z,1.90
2023-03-05T14:15:40.128Z,1.90
2023-03-05T14:18:11.856Z,1.90
2023-03-05T14:20:59.742Z,1.82
2023-03-05T14:23:41.047Z,1.84
2023-03-05T14:26:37.563Z,1.80
2023-03-05T14:29:11.466Z,1.80
2023-03-05T14:31:51.375Z,1.70
2023-03-05T14:34:42.837Z,1.70
2023-03-05T14:37:34.287Z,1.70
2023-03-05T14:40:21.722Z,1.60
2023-03-05T14:43:01.235Z,1.60
2023-03-05T14:45:43.711Z,1.70
2023-03-05T14:48:15.150Z,1.70
2023-03-05T14:50:56.426Z,1.70
2023-03-05T14:53:29.539Z,1.70
2023-03-05T14:55:57.418Z,1.70
2023-03-05T14:58:32.387Z,1.70
2023-03-05T15:01:00.242Z,1.70
2023-03-05T15:03:28.236Z,1.74
2023-03-05T15:05:58.813Z,1.80
2023-03-05T15:08:31.026Z,1.74
2023-03-05T15:11:00.696Z,1.70
2023-03-05T15:13:28.630Z,1.72
2023-03-05T15:15:56.527Z,1.80
2023-03-05T15:18:24.794Z,1.72
2023-03-05T15:20:53.059Z,1.70
2023-03-05T15:23:20.900Z,1.70
2023-03-05T15:25:48.867Z,1.70
2023-03-05T15:28:16.941Z,1.60
2023-03-05T15:30:47.640Z,1.60
2023-03-05T15:33:17.527Z,1.70
2023-03-05T15:35:45.522Z,1.70
2023-03-05T15:38:13.600Z,1.60
2023-03-05T15:40:41.565Z,1.62
2023-03-05T15:43:10.085Z,1.62
2023-03-05T15:45:37.900Z,1.60
2023-03-05T15:48:06.095Z,1.60
2023-03-05T15:50:33.891Z,1.70
2023-03-05T15:53:04.818Z,1.66
2023-03-05T15:55:32.594Z,1.68
2023-03-05T15:58:00.620Z,1.70
2023-03-05T16:00:31.071Z,1.70
2023-03-05T16:02:59.013Z,1.70
2023-03-05T16:05:26.975Z,1.70
2023-03-05T16:07:55.552Z,1.72
2023-03-05T16:10:26.661Z,1.78
2023-03-05T16:13:10.185Z,1.80
2023-03-05T16:15:41.038Z,1.80
2023-03-05T16:18:15.444Z,1.80
2023-03-05T16:20:43.593Z,1.80
2023-03-05T16:23:11.514Z,1.78
2023-03-05T16:25:39.438Z,1.80
2023-03-05T16:28:07.571Z,1.78
2023-03-05T16:30:35.677Z,1.70
2023-03-05T16:33:03.928Z,1.70
2023-03-05T16:35:31.849Z,1.70
2023-03-05T16:37:59.867Z,1.70
2023-03-05T16:40:44.272Z,1.70
2023-03-05T16:43:15.911Z,1.62
2023-03-05T16:45:43.737Z,1.62
2023-03-05T16:48:11.546Z,1.60
2023-03-05T16:50:39.338Z,1.60
2023-03-05T16:53:07.588Z,1.70
2023-03-05T16:55:37.552Z,1.60
2023-03-05T16:58:06.022Z,1.60
2023-03-05T17:00:33.901Z,1.60
2023-03-05T17:03:01.724Z,1.70
2023-03-05T17:05:29.898Z,1.70
2023-03-05T17:07:58.140Z,1.68
2023-03-05T17:10:26.037Z,1.60
2023-03-05T17:12:54.531Z,1.60
2023-03-05T17:15:23.756Z,1.60
2023-03-05T17:17:53.712Z,1.60
2023-03-05T17:20:22.064Z,1.60
2023-03-05T17:22:49.977Z,1.60
2023-03-05T17:25:18.661Z,1.60
2023-03-05T17:27:47.788Z,1.60
2023-03-05T17:30:16.787Z,1.60
2023-03-05T17:32:45.489Z,1.60
2023-03-05T17:35:22.406Z,1.50
2023-03-05T17:37:53.495Z,1.50
2023-03-05T17:40:25.619Z,1.50
2023-03-05T17:42:55.508Z,1.50
2023-03-05T17:45:23.359Z,1.50
2023-03-05T17:47:51.755Z,1.50
2023-03-05T17:50:20.476Z,1.50
2023-03-05T17:52:48.365Z,1.46
2023-03-05T17:55:17.784Z,1.40
2023-03-05T17:57:47.734Z,1.44
2023-03-05T18:00:22.362Z,1.40
2023-03-05T18:02:51.021Z,1.40
2023-03-05T18:05:23.416Z,1.40
2023-03-05T18:07:52.139Z,1.30
2023-03-05T18:10:22.166Z,1.20
2023-03-05T18:12:50.596Z,1.20
2023-03-05T18:15:24.354Z,1.10
2023-03-05T18:17:52.950Z,1.10
2023-03-05T18:20:28.876Z,1.10
2023-03-05T18:22:59.173Z,1.20
2023-03-05T18:25:32.663Z,1.20
2023-03-05T18:28:04.217Z,1.10
2023-03-05T18:30:32.769Z,1.10
2023-03-05T18:33:01.380Z,1.10
2023-03-05T18:35:29.748Z,1.00
2023-03-05T18:37:58.333Z,1.00
2023-03-05T18:40:29.597Z,1.00
2023-03-05T18:43:00.794Z,1.00
2023-03-05T18:45:30.708Z,1.00
2023-03-05T18:47:58.812Z,0.90
2023-03-05T18:50:28.490Z,0.90
2023-03-05T18:52:57.555Z,0.90
2023-03-05T18:55:28.293Z,0.90
2023-03-05T18:57:56.804Z,0.90
2023-03-05T19:00:29.304Z,0.90
2023-03-05T19:02:58.218Z,0.90
2023-03-05T19:05:26.772Z,0.90
2023-03-05T19:07:56.178Z,0.90
2023-03-05T19:10:24.351Z,0.90
2023-03-05T19:13:05.317Z,0.80
2023-03-05T19:15:34.091Z,0.80
2023-03-05T19:18:02.045Z,0.80
2023-03-05T19:20:29.835Z,0.80
2023-03-05T19:22:57.701Z,0.80
2023-03-05T19:25:25.653Z,0.80
2023-03-05T19:27:53.572Z,0.70
2023-03-05T19:30:21.506Z,0.70
2023-03-05T19:32:49.730Z,0.70
2023-03-05T19:35:18.402Z,0.70
2023-03-05T19:37:46.336Z,0.60
2023-03-05T19:40:15.097Z,0.60
2023-03-05T19:42:42.977Z,0.60
2023-03-05T19:45:11.084Z,0.60
2023-03-05T19:47:39.413Z,0.52
2023-03-05T19:50:08.255Z,0.50
2023-03-05T19:52:36.047Z,0.54
2023-03-05T19:55:04.705Z,0.60
2023-03-05T19:57:34.999Z,0.50
2023-03-05T20:00:02.827Z,0.56
2023-03-05T20:02:33.096Z,0.60
2023-03-05T20:05:01.309Z,0.50
2023-03-05T20:07:29.269Z,0.50
2023-03-05T20:09:57.191Z,0.40
2023-03-05T20:12:25.241Z,0.40
2023-03-05T20:14:53.184Z,0.38
2023-03-05T20:17:21.127Z,0.40
2023-03-05T20:19:49.076Z,0.40
2023-03-05T20:22:16.976Z,0.40
2023-03-05T20:24:44.886Z,0.30
2023-03-05T20:27:13.239Z,0.30
2023-03-05T20:29:41.203Z,0.30
2023-03-05T20:32:09.163Z,0.20
2023-03-05T20:34:37.221Z,0.20
2023-03-05T20:37:05.942Z,0.28
2023-03-05T20:39:34.055Z,0.20
2023-03-05T20:42:01.922Z,0.20
2023-03-05T20:44:29.905Z,0.20
2023-03-05T20:47:12.537Z,0.20
2023-03-05T20:49:40.482Z,0.20
2023-03-05T20:52:08.396Z,0.10
2023-03-05T20:54:36.922Z,0.10
2023-03-05T20:57:04.827Z,0.10
2023-03-05T20:59:32.708Z,0.10
2023-03-05T21:02:00.613Z,0.10
2023-03-05T21:04:28.419Z,0.10
2023-03-05T21:06:56.560Z,0.10
2023-03-05T21:09:24.758Z,0.10
2023-03-05T21:11:52.670Z,0.10
2023-03-05T21:14:20.554Z,0.10
2023-03-05T21:16:48.591Z,0.10
2023-03-05T21:19:17.559Z,0.20
2023-03-05T21:21:45.763Z,0.20
2023-03-05T21:24:13.879Z,0.20
2023-03-05T21:26:42.311Z,0.20
2023-03-05T21:29:10.141Z,0.10
2023-03-05T21:31:38.133Z,0.10
2023-03-05T21:34:05.935Z,0.10
2023-03-05T21:36:33.748Z,0.10
2023-03-05T21:39:01.594Z,0.10
2023-03-05T21:41:29.827Z,0.10
2023-03-05T21:43:59.157Z,0.10
2023-03-05T21:46:27.077Z,0.10
2023-03-05T21:48:57.716Z,0.08
2023-03-05T21:51:30.671Z,0.10
2023-03-05T21:53:58.781Z,0.08
2023-03-05T21:56:28.066Z,0.10
2023-03-05T21:58:55.812Z,0.06
2023-03-05T22:01:24.012Z,0.00
2023-03-05T22:03:52.051Z,0.00
2023-03-05T22:06:21.963Z,0.00
2023-03-05T22:08:49.910Z,0.00
2023-03-05T22:11:19.410Z,0.00
2023-03-05T22:13:47.383Z,0.00
2023-03-05T22:16:27.042Z,0.00
2023-03-05T22:18:55.715Z,-0.06
2023-03-05T22:21:27.384Z,-0.10
2023-03-05T22:23:59.475Z,-0.10
2023-03-05T22:26:38.825Z,-0.20
2023-03-05T22:29:11.767Z,-0.20
2023-03-05T22:31:40.985Z,-0.30
2023-03-05T22:34:09.123Z,-0.30
2023-03-05T22:36:37.247Z,-0.34
2023-03-05T22:39:05.252Z,-0.30
2023-03-05T22:41:33.357Z,-0.30
2023-03-05T22:44:01.397Z,-0.38
2023-03-05T22:46:29.432Z,-0.36
2023-03-05T22:48:57.780Z,-0.40
2023-03-05T22:51:25.720Z,-0.40
2023-03-05T22:53:53.704Z,-0.40
2023-03-05T22:56:21.650Z,-0.40
2023-03-05T22:58:49.488Z,-0.40
2023-03-05T23:01:22.264Z,-0.40
2023-03-05T23:03:58.710Z,-0.34
2023-03-05T23:06:26.518Z,-0.30
2023-03-05T23:08:54.365Z,-0.38
2023-03-05T23:11:22.238Z,-0.40
2023-03-05T23:13:50.006Z,-0.40
2023-03-05T23:16:17.835Z,-0.40
2023-03-05T23:18:45.751Z,-0.40
2023-03-05T23:21:13.590Z,-0.40
2023-03-05T23:23:41.318Z,-0.50
2023-03-05T23:26:09.069Z,-0.50
2023-03-05T23:28:37.139Z,-0.50
2023-03-05T23:31:05.769Z,-0.50
2023-03-05T23:33:33.646Z,-0.50
2023-03-05T23:36:01.504Z,-0.50
2023-03-05T23:38:30.517Z,-0.50
2023-03-05T23:41:01.343Z,-0.50
2023-03-05T23:43:30.443Z,-0.50
2023-03-05T23:46:00.442Z,-0.40
2023-03-05T23:48:29.916Z,-0.40
2023-03-05T23:50:57.882Z,-0.40
2023-03-05T23:53:29.489Z,-0.36
2023-03-05T23:55:57.624Z,-0.30
2023-03-05T23:58:25.712Z,-0.30
